Time;durP1;ratioP1;P1;durP2;ratioP2;P2;SDS_P1;SDS_P2;PMS_P1;PMS_P2;Temp;Humidity;BMP_temperature;BMP_pressure;BME280_temperature;BME280_humidity;BME280_pressure;Samples;Min_cycle;Max_cycle;Signal;HPM_P1;HPM_P2
2022/03/04 00:00:46;;;;;;;16.00;3.60;;;24.30;88.90;;;;;;5034863;28;20172;-75
2022/03/04 00:03:13;;;;;;;7.10;2.30;;;24.40;89.60;;;;;;5044941;28;20172;-74
2022/03/04 00:05:41;;;;;;;11.20;2.43;;;24.50;89.40;;;;;;5045154;28;20212;-74
2022/03/04 00:08:09;;;;;;;17.87;4.03;;;24.50;89.00;;;;;;5034430;28;20494;-76
2022/03/04 00:10:37;;;;;;;11.10;4.87;;;24.30;89.50;;;;;;5037888;28;20192;-76
2022/03/04 00:13:05;;;;;;;5.27;1.40;;;24.00;90.40;;;;;;5048351;28;20176;-77
2022/03/04 00:15:33;;;;;;;10.50;1.47;;;24.10;90.80;;;;;;5053971;28;20271;-75
2022/03/04 00:18:00;;;;;;;7.30;3.40;;;24.40;90.80;;;;;;5047735;28;20180;-75
2022/03/04 00:20:27;;;;;;;5.37;2.63;;;24.80;89.20;;;;;;5051287;28;20187;-75
2022/03/04 00:22:55;;;;;;;9.20;1.70;;;25.10;88.70;;;;;;5044898;28;20673;-73
2022/03/04 00:25:22;;;;;;;13.47;2.33;;;25.30;87.40;;;;;;5049336;28;20267;-76
2022/03/04 00:27:50;;;;;;;5.60;1.27;;;25.50;87.50;;;;;;5055723;28;20200;-74
2022/03/04 00:30:17;;;;;;;3.80;1.10;;;25.50;86.20;;;;;;5053880;28;20172;-74
2022/03/04 00:32:44;;;;;;;6.43;1.53;;;25.30;85.70;;;;;;5052721;28;20188;-74
2022/03/04 00:35:13;;;;;;;10.20;1.83;;;24.80;86.50;;;;;;5046774;28;20180;-75
2022/03/04 00:37:40;;;;;;;7.80;1.60;;;24.60;89.30;;;;;;5048788;28;20194;-74
2022/03/04 00:40:09;;;;;;;11.80;2.23;;;24.30;90.30;;;;;;5048643;28;20665;-74
2022/03/04 00:42:36;;;;;;;10.70;4.73;;;24.30;91.20;;;;;;5051147;28;20267;-77
2022/03/04 00:45:05;;;;;;;10.87;6.43;;;24.30;91.30;;;;;;5053261;28;20653;-75
2022/03/04 00:47:32;;;;;;;10.73;2.87;;;24.20;92.00;;;;;;5045272;28;20184;-77
2022/03/04 00:50:01;;;;;;;11.77;1.97;;;24.10;92.00;;;;;;5033733;28;20275;-75
2022/03/04 00:52:29;;;;;;;10.30;2.10;;;24.10;92.20;;;;;;5033369;28;20178;-75
2022/03/04 00:54:57;;;;;;;10.03;2.13;;;24.10;92.80;;;;;;5033244;28;20176;-78
2022/03/04 00:57:24;;;;;;;9.73;2.00;;;23.90;92.40;;;;;;5049577;28;20215;-78
2022/03/04 00:59:52;;;;;;;12.87;2.90;;;23.90;92.20;;;;;;5053167;28;20186;-82
2022/03/04 01:02:20;;;;;;;12.53;2.70;;;24.10;92.60;;;;;;5052165;28;20695;-76
2022/03/04 01:04:47;;;;;;;11.73;2.20;;;24.20;92.50;;;;;;5051230;28;20207;-74
2022/03/04 01:07:15;;;;;;;13.63;3.23;;;24.10;91.90;;;;;;5053309;28;20192;-76
2022/03/04 01:09:42;;;;;;;8.43;3.03;;;24.10;91.60;;;;;;5052877;28;20203;-79
2022/03/04 01:12:10;;;;;;;6.13;1.90;;;24.10;91.10;;;;;;5053087;28;20214;-77
2022/03/04 01:14:37;;;;;;;8.40;1.60;;;24.10;90.50;;;;;;5053181;28;20168;-73
2022/03/04 01:17:05;;;;;;;10.27;2.23;;;24.20;90.90;;;;;;5052131;28;20202;-75
2022/03/04 01:19:32;;;;;;;9.40;2.13;;;24.00;91.20;;;;;;5053152;28;20182;-76
2022/03/04 01:22:00;;;;;;;10.77;2.10;;;23.80;91.80;;;;;;5053019;28;20174;-79
2022/03/04 01:24:27;;;;;;;8.10;2.20;;;23.80;93.10;;;;;;5051352;28;20533;-74
2022/03/04 01:26:54;;;;;;;10.40;2.57;;;24.00;93.10;;;;;;5052115;28;20224;-75
2022/03/04 01:29:22;;;;;;;9.70;2.43;;;24.50;93.00;;;;;;5043216;28;20204;-74
2022/03/04 01:31:49;;;;;;;5.03;2.43;;;25.00;91.90;;;;;;5038355;28;20188;-74
2022/03/04 01:34:16;;;;;;;4.60;1.10;;;25.40;90.60;;;;;;5052727;28;20179;-74
2022/03/04 01:36:44;;;;;;;3.27;1.73;;;25.30;90.00;;;;;;5051896;28;20650;-76
2022/03/04 01:39:11;;;;;;;6.50;2.30;;;25.20;89.00;;;;;;5071197;28;20171;-74
2022/03/04 01:41:38;;;;;;;9.47;1.70;;;25.40;89.40;;;;;;5072947;28;20258;-75
2022/03/04 01:44:06;;;;;;;3.53;1.10;;;25.30;88.40;;;;;;5073236;28;20171;-75
2022/03/04 01:46:33;;;;;;;7.47;1.37;;;25.30;88.50;;;;;;5072781;28;20273;-76
2022/03/04 01:49:01;;;;;;;5.60;1.10;;;25.70;88.10;;;;;;5041870;28;20267;-75
2022/03/04 01:51:28;;;;;;;9.57;1.83;;;25.90;87.30;;;;;;5052930;28;20230;-78
2022/03/04 01:53:56;;;;;;;6.07;1.40;;;25.80;86.20;;;;;;5051530;28;20168;-75
2022/03/04 01:56:24;;;;;;;5.90;1.60;;;25.90;86.00;;;;;;5051959;28;20171;-74
2022/03/04 01:58:52;;;;;;;6.00;1.47;;;26.00;86.60;;;;;;5052269;28;20184;-74
2022/03/04 02:01:19;;;;;;;6.87;1.60;;;26.10;85.90;;;;;;5052729;28;20258;-76
2022/03/04 02:03:47;;;;;;;5.13;1.83;;;25.90;86.20;;;;;;5052673;28;20169;-76
2022/03/04 02:06:14;;;;;;;9.13;1.77;;;25.60;85.50;;;;;;5048179;28;20231;-75
2022/03/04 02:08:42;;;;;;;6.00;1.47;;;25.20;87.40;;;;;;5052397;28;20194;-76
2022/03/04 02:11:10;;;;;;;8.10;1.87;;;24.90;88.40;;;;;;5051053;28;20179;-73
2022/03/04 02:13:38;;;;;;;7.10;1.60;;;25.00;88.60;;;;;;5052729;28;20653;-74
2022/03/04 02:16:19;;;;;;;4.83;1.37;;;25.70;86.50;;;;;;5052688;28;20164;-74
2022/03/04 02:18:46;;;;;;;8.10;1.97;;;25.90;85.70;;;;;;5052443;28;20178;-74
2022/03/04 02:21:14;;;;;;;11.13;1.63;;;25.90;84.10;;;;;;5052585;28;20172;-74
2022/03/04 02:23:43;;;;;;;3.13;0.90;;;25.70;83.90;;;;;;5048731;28;20529;-73
2022/03/04 02:26:10;;;;;;;10.13;2.50;;;25.50;83.70;;;;;;5052064;28;20528;-75
2022/03/04 02:28:38;;;;;;;9.40;2.20;;;25.30;84.90;;;;;;5052146;28;20176;-82
2022/03/04 02:31:08;;;;;;;8.73;4.03;;;25.80;84.20;;;;;;5052540;28;20669;-74
2022/03/04 02:33:36;;;;;;;4.83;1.30;;;25.80;84.10;;;;;;5052510;28;20183;-73
2022/03/04 02:36:03;;;;;;;5.40;1.20;;;25.60;84.80;;;;;;5052241;28;20686;-76
2022/03/04 02:38:30;;;;;;;6.50;1.23;;;25.40;84.30;;;;;;5045971;28;20237;-75
2022/03/04 02:40:58;;;;;;;5.33;1.00;;;25.80;84.60;;;;;;5048941;28;20808;-72
2022/03/04 02:43:25;;;;;;;4.17;1.33;;;25.90;85.90;;;;;;5056253;28;20519;-74
2022/03/04 02:45:52;;;;;;;3.43;1.13;;;25.70;87.20;;;;;;5055668;28;20669;-74
2022/03/04 02:48:20;;;;;;;4.33;1.30;;;25.80;87.70;;;;;;5055947;28;20172;-76
2022/03/04 02:50:47;;;;;;;4.93;1.50;;;25.90;87.20;;;;;;5055918;28;20173;-75
2022/03/04 02:53:15;;;;;;;5.03;1.50;;;26.20;86.60;;;;;;5056027;28;20593;-74
2022/03/04 02:55:42;;;;;;;3.83;1.10;;;26.40;84.60;;;;;;5052996;28;20658;-73
2022/03/04 02:58:09;;;;;;;6.13;1.23;;;26.30;84.30;;;;;;5055784;28;20176;-73
2022/03/04 03:00:38;;;;;;;4.33;1.03;;;26.40;84.50;;;;;;5055596;28;20558;-74
2022/03/04 03:03:05;;;;;;;3.77;1.07;;;26.40;83.60;;;;;;5056167;28;20226;-73
2022/03/04 03:05:32;;;;;;;8.17;1.47;;;26.40;82.80;;;;;;5055476;28;20224;-73
2022/03/04 03:08:00;;;;;;;8.30;1.23;;;26.70;83.70;;;;;;5055600;28;20661;-73
2022/03/04 03:10:27;;;;;;;4.43;1.20;;;27.00;82.50;;;;;;5051741;28;20696;-75
2022/03/04 03:12:55;;;;;;;3.37;1.10;;;26.50;83.50;;;;;;5055010;28;20187;-75
2022/03/04 03:15:22;;;;;;;5.70;1.30;;;26.00;85.20;;;;;;5055608;28;20196;-73
2022/03/04 03:17:49;;;;;;;4.33;1.63;;;25.80;85.90;;;;;;5051963;28;20191;-76
2022/03/04 03:20:17;;;;;;;5.80;2.43;;;25.70;86.80;;;;;;5052268;28;20646;-75
2022/03/04 03:22:44;;;;;;;4.63;1.30;;;26.00;87.10;;;;;;5038553;28;20238;-75
2022/03/04 03:25:12;;;;;;;6.57;1.10;;;26.50;85.60;;;;;;5050092;28;20199;-74
2022/03/04 03:27:39;;;;;;;6.27;0.83;;;27.20;83.80;;;;;;5037932;28;20286;-74
2022/03/04 03:30:08;;;;;;;3.30;0.97;;;27.30;80.00;;;;;;5052787;28;20548;-73
2022/03/04 03:32:36;;;;;;;3.37;1.00;;;27.70;80.10;;;;;;5049824;28;20546;-74
2022/03/04 03:35:04;;;;;;;3.67;0.83;;;27.60;79.50;;;;;;5034695;28;20233;-75
2022/03/04 03:37:32;;;;;;;6.17;1.20;;;27.60;79.90;;;;;;5035008;28;20200;-74
2022/03/04 03:39:59;;;;;;;5.63;1.30;;;27.50;80.00;;;;;;5046774;28;20176;-74
2022/03/04 03:42:27;;;;;;;5.77;1.03;;;27.20;79.60;;;;;;5054726;28;20585;-75
2022/03/04 03:44:54;;;;;;;4.77;1.17;;;26.90;80.80;;;;;;5051560;28;20253;-75
2022/03/04 03:47:21;;;;;;;3.53;1.40;;;26.50;81.70;;;;;;5034274;28;20188;-75
2022/03/04 03:49:49;;;;;;;9.03;1.53;;;26.10;83.70;;;;;;5034911;28;20181;-78
2022/03/04 03:52:16;;;;;;;4.97;1.20;;;25.90;83.50;;;;;;5034491;28;20180;-76
2022/03/04 03:54:44;;;;;;;11.20;1.80;;;25.40;86.60;;;;;;5038172;28;20180;-80
2022/03/04 03:57:11;;;;;;;4.90;1.30;;;25.10;88.00;;;;;;5033678;28;20619;-74
2022/03/04 03:59:39;;;;;;;5.90;1.63;;;24.80;88.80;;;;;;5037382;28;20200;-76
2022/03/04 04:02:07;;;;;;;4.50;1.03;;;24.60;89.90;;;;;;5052283;28;20637;-75
2022/03/04 04:04:34;;;;;;;6.40;1.53;;;24.80;88.90;;;;;;5050123;28;20229;-76
2022/03/04 04:07:06;;;;;;;7.67;1.53;;;25.50;88.50;;;;;;5053049;28;20674;-74
2022/03/04 04:09:33;;;;;;;8.93;1.40;;;25.90;87.40;;;;;;5045573;28;20272;-77
2022/03/04 04:12:01;;;;;;;8.13;1.50;;;25.90;86.60;;;;;;5046230;28;20215;-72
2022/03/04 04:14:29;;;;;;;7.87;1.53;;;25.70;86.80;;;;;;5046151;28;20176;-74
2022/03/04 04:16:57;;;;;;;7.27;2.80;;;25.70;86.60;;;;;;5041512;28;20188;-74
2022/03/04 04:19:25;;;;;;;5.57;2.00;;;26.30;83.80;;;;;;5045803;28;20195;-73
2022/03/04 04:21:53;;;;;;;6.90;1.60;;;27.20;81.20;;;;;;5033871;28;20216;-75
2022/03/04 04:24:20;;;;;;;7.80;1.60;;;26.70;81.60;;;;;;5040630;28;20282;-75
2022/03/04 04:26:48;;;;;;;9.87;1.30;;;26.60;80.90;;;;;;5039653;28;20232;-75
2022/03/04 04:29:15;;;;;;;6.20;1.47;;;26.70;80.70;;;;;;5042887;28;20188;-73
2022/03/04 04:31:42;;;;;;;4.57;1.20;;;27.10;79.70;;;;;;5051706;28;20183;-77
2022/03/04 04:34:11;;;;;;;8.37;1.30;;;27.20;79.50;;;;;;5053650;28;20635;-79
2022/03/04 04:36:38;;;;;;;9.20;6.30;;;26.70;80.50;;;;;;5053170;28;20168;-75
2022/03/04 04:39:05;;;;;;;5.70;2.03;;;26.90;80.60;;;;;;5045680;28;20592;-75
2022/03/04 04:41:34;;;;;;;7.40;1.97;;;27.50;78.50;;;;;;5033489;28;20279;-74
2022/03/04 04:44:02;;;;;;;7.53;2.20;;;26.90;81.70;;;;;;5033987;28;20177;-76
2022/03/04 04:46:29;;;;;;;9.17;1.53;;;26.30;83.40;;;;;;5033828;28;20213;-75
2022/03/04 04:48:57;;;;;;;10.70;1.50;;;25.90;83.30;;;;;;5036041;28;20506;-78
2022/03/04 04:51:24;;;;;;;7.50;1.67;;;25.50;84.40;;;;;;5053460;28;20176;-74
2022/03/04 04:53:53;;;;;;;6.40;1.50;;;25.90;84.10;;;;;;5053593;28;20184;-81
2022/03/04 04:56:21;;;;;;;5.30;1.20;;;25.90;84.10;;;;;;5052822;28;20203;-76
2022/03/04 04:58:49;;;;;;;7.53;1.50;;;25.90;82.60;;;;;;5053276;28;20202;-73
2022/03/04 05:01:17;;;;;;;5.03;1.30;;;26.30;83.30;;;;;;5052526;28;20220;-74
2022/03/04 05:03:44;;;;;;;10.17;2.13;;;26.30;82.70;;;;;;5053466;28;20172;-75
2022/03/04 05:06:15;;;;;;;7.90;2.33;;;26.30;83.60;;;;;;5052903;28;20686;-74
2022/03/04 05:08:42;;;;;;;7.87;1.80;;;26.10;82.70;;;;;;5053084;28;20199;-74
2022/03/04 05:11:09;;;;;;;8.47;1.60;;;26.10;83.80;;;;;;5052606;28;20175;-75
2022/03/04 05:13:37;;;;;;;11.63;2.00;;;26.10;82.40;;;;;;5053405;28;20690;-74
2022/03/04 05:16:04;;;;;;;10.33;1.57;;;26.60;81.20;;;;;;5053316;28;20180;-76
2022/03/04 05:18:32;;;;;;;6.43;1.37;;;26.40;82.10;;;;;;5052266;28;20211;-75
2022/03/04 05:21:02;;;;;;;9.47;2.00;;;25.70;84.50;;;;;;5051791;28;20680;-79
2022/03/04 05:26:14;;;;;;;11.07;1.80;;;25.10;86.20;;;;;;5053355;28;20245;-76
2022/03/04 05:28:42;;;;;;;14.83;5.23;;;25.00;87.00;;;;;;5052947;28;20212;-81
2022/03/04 05:31:09;;;;;;;9.07;2.47;;;25.10;87.20;;;;;;5041290;28;20191;-75
2022/03/04 05:33:36;;;;;;;8.70;1.70;;;24.70;88.70;;;;;;5033033;28;20180;-75
2022/03/04 05:36:04;;;;;;;11.97;3.27;;;24.60;88.60;;;;;;5049809;28;20274;-74
2022/03/04 05:38:32;;;;;;;12.93;2.10;;;24.60;88.90;;;;;;5052933;28;20276;-73
2022/03/04 05:40:59;;;;;;;5.20;1.63;;;24.60;89.70;;;;;;5052752;28;20275;-73
2022/03/04 05:43:26;;;;;;;9.00;1.80;;;24.40;89.80;;;;;;5052610;28;20626;-74
2022/03/04 05:45:54;;;;;;;8.07;2.67;;;24.50;89.70;;;;;;5052805;28;20619;-81
2022/03/04 05:48:21;;;;;;;12.50;2.60;;;24.80;89.10;;;;;;5044867;28;20203;-75
2022/03/04 05:50:48;;;;;;;7.73;1.90;;;24.70;89.30;;;;;;5052211;28;20184;-77
2022/03/04 05:53:16;;;;;;;6.87;1.70;;;24.60;89.20;;;;;;5045393;28;20666;-77
2022/03/04 05:55:43;;;;;;;14.50;2.20;;;24.40;89.90;;;;;;5033604;28;20184;-74
2022/03/04 05:58:10;;;;;;;5.53;2.00;;;24.30;90.30;;;;;;5042056;28;20172;-76
2022/03/04 06:00:38;;;;;;;10.63;1.60;;;24.30;90.80;;;;;;5052220;28;20196;-77
2022/03/04 06:03:07;;;;;;;7.87;1.70;;;24.20;91.10;;;;;;5053526;28;20557;-74
2022/03/04 06:05:35;;;;;;;10.73;1.97;;;24.10;90.90;;;;;;5058254;28;20250;-75
2022/03/04 06:08:03;;;;;;;9.70;1.50;;;24.00;91.10;;;;;;5047568;28;20172;-76
2022/03/04 06:10:30;;;;;;;7.30;1.97;;;24.00;91.40;;;;;;5047968;28;20177;-77
2022/03/04 06:12:57;;;;;;;8.20;1.97;;;23.90;91.80;;;;;;5056458;28;20222;-76
2022/03/04 06:15:25;;;;;;;9.50;2.03;;;23.80;92.60;;;;;;5037564;28;20214;-76
2022/03/04 06:17:52;;;;;;;6.43;2.10;;;23.80;92.90;;;;;;5047226;28;20222;-82
2022/03/04 06:20:20;;;;;;;11.07;1.80;;;23.80;92.40;;;;;;5035441;28;20181;-82
2022/03/04 06:22:48;;;;;;;7.50;2.10;;;23.80;92.70;;;;;;5038808;28;20660;-87
2022/03/04 06:25:16;;;;;;;8.00;2.20;;;23.60;92.90;;;;;;5056645;28;20555;-80
2022/03/04 06:27:57;;;;;;;10.57;2.73;;;23.50;93.20;;;;;;5048490;28;20258;-80
2022/03/04 06:30:28;;;;;;;7.23;2.20;;;23.50;93.40;;;;;;5045748;28;20176;-77
2022/03/04 06:33:42;;;;;;;9.57;1.90;;;23.70;93.70;;;;;;5052577;28;20172;-78
2022/03/04 06:35:45;;;;;;;5.60;1.87;;;23.70;93.50;;;;;;5051822;28;20214;-77
2022/03/04 06:38:13;;;;;;;7.93;2.47;;;23.70;93.60;;;;;;5055568;28;20172;-82
2022/03/04 06:40:41;;;;;;;10.43;3.13;;;23.70;94.00;;;;;;5050293;28;20180;-79
2022/03/04 06:43:09;;;;;;;13.87;3.10;;;23.60;94.30;;;;;;5055807;28;20698;-83
2022/03/04 06:45:40;;;;;;;10.03;2.40;;;23.60;94.70;;;;;;5057107;28;20688;-85
2022/03/04 06:48:07;;;;;;;6.17;2.07;;;23.50;94.40;;;;;;5051316;28;20181;-85
2022/03/04 06:50:34;;;;;;;12.33;3.10;;;23.50;94.60;;;;;;5041940;28;20233;-81
2022/03/04 06:53:02;;;;;;;10.93;3.00;;;23.50;94.70;;;;;;5055643;28;20188;-80
2022/03/04 06:55:30;;;;;;;8.90;3.03;;;23.60;94.70;;;;;;5039243;28;20274;-85
2022/03/04 06:57:57;;;;;;;9.73;3.10;;;23.60;94.60;;;;;;5042036;28;20180;-83
2022/03/04 07:00:25;;;;;;;7.83;3.07;;;23.60;94.50;;;;;;5052687;28;20180;-80
2022/03/04 07:02:54;;;;;;;14.60;3.70;;;23.60;94.40;;;;;;5041908;28;20184;-82
2022/03/04 07:05:21;;;;;;;12.33;2.97;;;23.50;94.60;;;;;;5039505;28;20226;-82
2022/03/04 07:07:56;;;;;;;9.87;3.33;;;23.50;94.50;;;;;;5042186;28;20184;-84
2022/03/04 07:10:24;;;;;;;11.63;2.70;;;23.40;94.70;;;;;;5051778;28;20226;-86
2022/03/04 07:12:51;;;;;;;13.40;2.87;;;23.40;94.70;;;;;;5055412;28;20176;-85
2022/03/04 07:15:19;;;;;;;8.83;3.27;;;23.30;94.80;;;;;;5054969;28;20176;-84
2022/03/04 07:17:48;;;;;;;10.70;3.27;;;23.30;95.00;;;;;;5055570;28;20187;-85
2022/03/04 07:20:16;;;;;;;10.37;3.20;;;23.20;95.10;;;;;;5054952;28;20237;-86
2022/03/04 07:22:44;;;;;;;10.33;4.10;;;23.20;95.10;;;;;;5052718;28;20266;-84
2022/03/04 07:25:13;;;;;;;13.53;3.97;;;23.20;95.20;;;;;;5054025;28;20172;-85
2022/03/04 07:27:41;;;;;;;14.77;4.00;;;23.20;95.20;;;;;;5055247;28;20187;-80
2022/03/04 07:30:14;;;;;;;16.97;4.40;;;23.20;94.90;;;;;;5054244;28;20199;-78
2022/03/04 07:32:42;;;;;;;12.70;4.33;;;23.10;94.90;;;;;;5054852;28;20191;-77
2022/03/04 07:35:11;;;;;;;21.37;4.73;;;23.00;95.10;;;;;;5054180;28;20214;-79
2022/03/04 07:37:40;;;;;;;20.50;4.83;;;23.00;95.30;;;;;;5047567;28;20184;-81
2022/03/04 07:40:09;;;;;;;22.47;4.60;;;23.00;95.30;;;;;;5043608;28;20180;-81
2022/03/04 07:42:37;;;;;;;14.30;4.20;;;23.00;95.40;;;;;;5044952;28;20266;-78
2022/03/04 07:45:06;;;;;;;14.57;4.33;;;22.90;95.50;;;;;;5054194;28;20184;-78
2022/03/04 07:47:34;;;;;;;14.53;4.27;;;22.90;95.50;;;;;;5054249;28;20164;-81
2022/03/04 07:50:01;;;;;;;19.33;5.03;;;23.00;95.70;;;;;;5054162;28;20179;-85
2022/03/04 07:52:31;;;;;;;22.37;5.17;;;22.90;95.70;;;;;;5053897;28;20270;-88
2022/03/04 07:55:00;;;;;;;26.23;5.60;;;22.90;95.70;;;;;;5054531;28;20660;-83
2022/03/04 07:57:28;;;;;;;23.60;5.60;;;22.90;95.70;;;;;;5053889;28;20639;-79
2022/03/04 07:59:55;;;;;;;20.13;5.53;;;22.80;95.70;;;;;;5050430;28;20184;-83
2022/03/04 08:02:23;;;;;;;28.10;6.07;;;22.90;95.80;;;;;;5035501;28;20256;-82
2022/03/04 08:04:50;;;;;;;15.40;5.10;;;22.90;95.90;;;;;;5037117;28;20177;-81
2022/03/04 08:07:18;;;;;;;19.43;5.63;;;22.90;95.90;;;;;;5048159;28;20214;-80
2022/03/04 08:09:46;;;;;;;24.27;5.63;;;22.90;95.90;;;;;;5051169;28;20172;-87
2022/03/04 08:12:14;;;;;;;29.67;6.97;;;22.90;95.80;;;;;;5046157;28;20191;-79
2022/03/04 08:14:41;;;;;;;18.40;5.50;;;22.80;95.80;;;;;;5048038;28;20199;-80
2022/03/04 08:17:09;;;;;;;21.03;5.67;;;22.80;95.90;;;;;;5049008;28;20258;-80
2022/03/04 08:19:39;;;;;;;21.67;5.87;;;22.80;95.90;;;;;;5050973;28;20184;-81
2022/03/04 08:22:08;;;;;;;17.83;5.47;;;22.80;96.00;;;;;;5049804;28;20222;-77
2022/03/04 08:24:35;;;;;;;18.17;4.80;;;22.80;96.00;;;;;;5039782;28;20192;-81
2022/03/04 08:27:03;;;;;;;15.33;4.27;;;22.80;96.10;;;;;;5050210;28;20208;-78
2022/03/04 08:29:30;;;;;;;17.97;5.33;;;22.80;96.10;;;;;;5042767;28;20200;-77
2022/03/04 08:31:58;;;;;;;14.60;3.87;;;22.80;96.20;;;;;;5052821;28;20235;-80
2022/03/04 08:34:25;;;;;;;20.50;4.93;;;22.80;96.30;;;;;;5053153;28;20645;-80
2022/03/04 08:36:53;;;;;;;7.47;4.13;;;22.80;96.30;;;;;;5051757;28;20180;-80
2022/03/04 08:39:20;;;;;;;13.50;4.30;;;22.80;96.40;;;;;;5053518;28;20275;-80
2022/03/04 08:41:47;;;;;;;12.87;4.10;;;22.80;96.30;;;;;;5033797;28;20653;-80
2022/03/04 08:44:15;;;;;;;12.67;3.53;;;22.80;96.20;;;;;;5046611;28;20191;-80
2022/03/04 08:46:42;;;;;;;15.40;5.07;;;22.70;96.20;;;;;;5053163;28;20286;-83
2022/03/04 08:49:10;;;;;;;16.37;5.03;;;22.70;96.30;;;;;;5053365;28;20215;-80
2022/03/04 08:51:38;;;;;;;17.20;6.43;;;22.70;96.30;;;;;;5052748;28;20177;-82
2022/03/04 08:54:08;;;;;;;22.73;6.60;;;22.70;96.30;;;;;;5053456;28;20176;-81
2022/03/04 08:56:36;;;;;;;18.43;5.90;;;22.70;96.30;;;;;;5052963;28;20262;-82
2022/03/04 08:59:04;;;;;;;19.90;6.63;;;22.70;96.30;;;;;;5052540;28;20191;-82
2022/03/04 09:01:31;;;;;;;31.03;6.73;;;22.70;96.30;;;;;;5041624;28;20608;-80
2022/03/04 09:03:58;;;;;;;23.07;7.00;;;22.70;96.40;;;;;;5039239;28;20176;-83
2022/03/04 09:06:26;;;;;;;25.87;7.97;;;22.70;96.40;;;;;;5040102;28;20232;-82
2022/03/04 09:08:53;;;;;;;19.93;6.97;;;22.70;96.40;;;;;;5048623;28;20184;-82
2022/03/04 09:11:21;;;;;;;20.13;5.60;;;22.60;96.40;;;;;;5044553;28;20184;-83
2022/03/04 09:13:48;;;;;;;19.67;5.90;;;22.50;96.30;;;;;;5033074;28;20238;-83
2022/03/04 09:16:16;;;;;;;18.97;7.00;;;22.50;96.40;;;;;;5048279;28;20210;-82
2022/03/04 09:18:43;;;;;;;20.73;6.47;;;22.50;96.40;;;;;;5047409;28;20588;-82
2022/03/04 09:21:11;;;;;;;16.90;5.90;;;22.40;96.40;;;;;;5048480;28;20179;-83
2022/03/04 09:23:38;;;;;;;18.30;6.53;;;22.40;96.40;;;;;;5050106;28;20527;-83
2022/03/04 09:26:05;;;;;;;22.80;6.83;;;22.40;96.40;;;;;;5051183;28;20207;-82
2022/03/04 09:28:33;;;;;;;18.13;6.53;;;22.50;96.50;;;;;;5052795;28;20527;-81
2022/03/04 09:31:00;;;;;;;22.13;6.40;;;22.40;96.50;;;;;;5050971;28;20271;-82
2022/03/04 09:33:27;;;;;;;18.23;5.83;;;22.40;96.50;;;;;;5043349;28;20631;-80
2022/03/04 09:35:55;;;;;;;15.93;5.53;;;22.40;96.40;;;;;;5048861;28;20172;-80
2022/03/04 09:38:24;;;;;;;14.63;5.07;;;22.40;96.40;;;;;;5050552;28;20642;-80
2022/03/04 09:40:52;;;;;;;19.10;5.83;;;22.40;96.40;;;;;;5034529;28;20706;-79
2022/03/04 09:43:21;;;;;;;12.93;5.10;;;22.40;96.50;;;;;;5044452;28;20171;-80
2022/03/04 09:45:50;;;;;;;13.50;4.90;;;22.40;96.50;;;;;;5042695;28;20211;-81
2022/03/04 09:48:20;;;;;;;11.50;5.73;;;22.40;96.40;;;;;;5035694;28;20175;-80
2022/03/04 09:50:48;;;;;;;19.60;4.67;;;22.40;96.40;;;;;;5049930;28;20571;-82
2022/03/04 09:53:17;;;;;;;10.97;4.60;;;22.40;96.40;;;;;;5040020;28;20172;-78
2022/03/04 09:55:45;;;;;;;15.00;4.40;;;22.40;96.40;;;;;;5052162;28;20646;-79
2022/03/04 09:58:18;;;;;;;13.63;3.93;;;22.30;96.40;;;;;;5034027;28;20184;-79
2022/03/04 10:00:47;;;;;;;14.63;3.93;;;22.30;96.30;;;;;;5049876;28;20184;-77
2022/03/04 10:03:44;;;;;;;7.90;3.60;;;22.40;96.30;;;;;;5041987;28;20177;-78
2022/03/04 10:06:12;;;;;;;9.80;3.90;;;22.30;96.30;;;;;;5032782;28;20224;-78
2022/03/04 10:08:44;;;;;;;9.40;4.10;;;22.30;96.30;;;;;;5050820;28;20211;-79
2022/03/04 10:11:12;;;;;;;9.67;3.80;;;22.30;96.30;;;;;;5051028;28;20191;-77
2022/03/04 10:13:51;;;;;;;11.17;4.33;;;22.30;96.30;;;;;;5040715;28;20184;-77
2022/03/04 10:16:25;;;;;;;8.93;4.10;;;22.30;96.40;;;;;;5041622;28;20629;-78
2022/03/04 10:19:16;;;;;;;14.83;4.10;;;22.30;96.40;;;;;;5051986;28;20622;-78
2022/03/04 10:21:47;;;;;;;11.77;4.27;;;22.20;96.30;;;;;;5042860;28;20557;-77
2022/03/04 10:24:16;;;;;;;11.30;4.03;;;22.30;96.50;;;;;;5035477;28;20209;-78
2022/03/04 10:26:43;;;;;;;16.00;4.20;;;22.30;96.50;;;;;;5034383;28;20208;-77
2022/03/04 10:29:24;;;;;;;14.03;4.80;;;22.20;96.50;;;;;;5044817;28;20206;-78
2022/03/04 10:32:06;;;;;;;17.80;4.43;;;22.20;96.50;;;;;;5032708;28;20172;-78
2022/03/04 10:34:54;;;;;;;16.17;5.07;;;22.10;96.50;;;;;;5044456;28;20180;-77
2022/03/04 10:37:24;;;;;;;14.97;4.87;;;22.20;96.70;;;;;;5048163;28;20657;-78
2022/03/04 10:40:01;;;;;;;18.10;5.37;;;22.30;96.70;;;;;;5044686;28;20187;-78
2022/03/04 10:42:52;;;;;;;16.53;5.17;;;22.30;96.60;;;;;;5035039;28;20191;-78
2022/03/04 10:45:25;;;;;;;15.23;4.80;;;22.30;96.60;;;;;;5041318;28;20677;-77
2022/03/04 10:47:58;;;;;;;17.77;5.10;;;22.30;96.60;;;;;;5049404;28;20219;-78
2022/03/04 10:50:36;;;;;;;15.07;4.57;;;22.30;96.70;;;;;;5051779;28;20186;-77
2022/03/04 10:53:11;;;;;;;9.63;4.93;;;22.30;96.60;;;;;;5050631;28;20541;-75
2022/03/04 10:55:47;;;;;;;12.57;4.33;;;22.30;96.60;;;;;;5037067;28;20204;-75
2022/03/04 10:58:35;;;;;;;17.40;4.70;;;22.30;96.50;;;;;;5052616;28;20231;-77
2022/03/04 11:01:12;;;;;;;13.23;4.50;;;22.20;96.50;;;;;;5051111;28;20244;-77
2022/03/04 11:03:42;;;;;;;18.03;5.60;;;22.20;96.50;;;;;;5051610;28;20646;-77
2022/03/04 11:06:14;;;;;;;17.80;5.20;;;22.20;96.50;;;;;;5052249;28;20243;-78
2022/03/04 11:08:45;;;;;;;17.80;4.63;;;22.10;96.40;;;;;;5052261;28;20191;-75
2022/03/04 11:11:13;;;;;;;14.93;4.67;;;22.20;96.50;;;;;;5041327;28;20180;-76
2022/03/04 11:13:41;;;;;;;12.40;4.90;;;22.10;96.50;;;;;;5054898;28;20171;-76
2022/03/04 11:16:09;;;;;;;13.60;4.43;;;22.20;96.50;;;;;;5054452;28;20650;-78
2022/03/04 11:18:37;;;;;;;15.33;5.10;;;22.20;96.50;;;;;;5051704;28;20538;-78
2022/03/04 11:21:05;;;;;;;12.37;4.93;;;22.20;96.50;;;;;;5036801;28;20177;-78
2022/03/04 11:23:36;;;;;;;14.17;4.70;;;22.20;96.50;;;;;;5053986;28;20176;-79
2022/03/04 11:26:07;;;;;;;16.27;4.63;;;22.20;96.50;;;;;;5055467;28;20692;-81
2022/03/04 11:28:45;;;;;;;13.83;5.20;;;22.30;96.50;;;;;;5055139;28;20187;-81
2022/03/04 11:31:15;;;;;;;16.80;4.70;;;22.30;96.60;;;;;;5045769;28;20188;-82
2022/03/04 11:33:58;;;;;;;18.07;4.97;;;22.30;96.60;;;;;;5052778;28;20187;-82
2022/03/04 11:36:31;;;;;;;19.40;4.67;;;22.30;96.60;;;;;;5055924;28;20385;-82
2022/03/04 11:39:02;;;;;;;12.27;4.87;;;22.30;96.60;;;;;;5054460;28;20190;-83
2022/03/04 11:41:30;;;;;;;18.87;4.63;;;22.30;96.60;;;;;;5054739;28;20188;-81
2022/03/04 11:44:08;;;;;;;14.93;4.73;;;22.30;96.50;;;;;;5054564;28;20523;-81
2022/03/04 11:47:02;;;;;;;16.63;6.13;;;22.30;96.60;;;;;;5054434;28;20226;-85
2022/03/04 11:49:58;;;;;;;17.20;4.70;;;22.30;96.70;;;;;;5054780;28;20194;-84
2022/03/04 11:52:41;;;;;;;15.77;4.50;;;22.30;96.70;;;;;;5053822;28;20183;-80
2022/03/04 11:55:12;;;;;;;18.37;5.27;;;22.30;96.70;;;;;;5054536;28;20183;-78
2022/03/04 11:57:46;;;;;;;14.40;4.20;;;22.30;96.70;;;;;;5054131;28;20226;-78
2022/03/04 12:00:14;;;;;;;13.27;4.00;;;22.30;96.70;;;;;;5053866;28;20180;-77
2022/03/04 12:02:46;;;;;;;11.47;4.07;;;22.30;96.70;;;;;;5054184;28;20172;-77
2022/03/04 12:05:19;;;;;;;14.67;4.73;;;22.30;96.70;;;;;;5053488;28;20227;-77
2022/03/04 12:07:52;;;;;;;12.80;4.93;;;22.30;96.80;;;;;;5049498;28;20188;-76
2022/03/04 12:10:25;;;;;;;16.00;4.43;;;22.30;96.80;;;;;;5053885;28;20231;-76
2022/03/04 12:13:03;;;;;;;12.57;4.50;;;22.30;96.80;;;;;;5052515;28;20183;-76
2022/03/04 12:15:45;;;;;;;13.37;4.13;;;22.30;96.80;;;;;;5053665;28;20179;-77
2022/03/04 12:18:26;;;;;;;17.70;5.30;;;22.30;96.80;;;;;;5054030;28;20164;-77
2022/03/04 12:21:13;;;;;;;12.70;4.40;;;22.30;96.80;;;;;;5053471;28;20179;-77
2022/03/04 12:23:43;;;;;;;14.80;4.63;;;22.30;96.90;;;;;;5053465;28;20225;-76
2022/03/04 12:26:24;;;;;;;16.10;5.27;;;22.30;96.90;;;;;;5050620;28;20204;-77
2022/03/04 12:29:09;;;;;;;15.23;5.20;;;22.30;96.90;;;;;;5049978;28;20183;-77
2022/03/04 12:31:40;;;;;;;25.57;5.63;;;22.30;96.90;;;;;;5033913;28;20179;-79
2022/03/04 12:34:23;;;;;;;17.57;5.30;;;22.30;96.90;;;;;;5038270;28;20173;-77
2022/03/04 12:36:54;;;;;;;18.20;5.43;;;22.30;96.90;;;;;;5052638;28;20207;-77
2022/03/04 12:39:22;;;;;;;18.13;5.53;;;22.20;96.90;;;;;;5053418;28;20168;-77
2022/03/04 12:41:56;;;;;;;22.73;5.53;;;22.20;96.90;;;;;;5046930;28;20243;-75
2022/03/04 12:44:29;;;;;;;12.30;5.33;;;22.10;96.90;;;;;;5032895;28;20661;-78
2022/03/04 12:46:57;;;;;;;19.40;5.53;;;22.00;97.00;;;;;;5032917;28;20265;-76
2022/03/04 12:49:29;;;;;;;15.10;5.00;;;22.00;96.90;;;;;;5033388;28;20247;-77
2022/03/04 12:51:57;;;;;;;13.70;5.17;;;21.90;97.00;;;;;;5039984;28;20187;-77
2022/03/04 12:54:30;;;;;;;11.80;5.23;;;21.90;97.00;;;;;;5052900;28;20168;-77